Pembroke, NC

8:53 PM EST on December 28, 2014 (GMT -0500)
Lumberton Municipal | Change Station
CLOSE
Current Station
Airport
Location: Lumberton,
Elevation: 125 ft
Nearby Weather Stations
Active Advisory: Flood Warning

Elev 125 ft 34.61 °N, 79.06 °W | Updated 59 minutes ago

Overcast
Overcast
63 °F
Feels Like 63 °F
N
4
Wind Variable Wind from West

Today
High -- | Low -- °F
--% Chance of Precip.
Yesterday
High -- | Low -- °F
Precip. -- in
7:22 AM 5:13 PM
First Quarter, 53% visible
Pressure 30.05 in
Visibility 10.0 miles
Clouds Overcast 1600 ft
Dew Point 60 °F
Humidity 90%
Rainfall 0.03 in
Snow Depth Not available.
UV 0 out of 12
Pollen 2.20 out of 12
Air Quality Not available.
Flu Activity Not available.
METAR KLBT 290054Z AUTO 26003KT 10SM OVC016 17/16 A3005 RMK AO2 SLP176 T01720156

More Conditions Fewer Conditions

Pressure 30.05 in
Visibility 10.0 miles
Clouds Overcast 1600 ft
Dew Point 60 °F
Humidity 90%
Rainfall 0.03 in
Snow Depth Not available.
UV 0 out of 12
Pollen 2.20 out of 12
Air Quality Not available.
Flu Activity Not available.
METAR KLBT 290054Z AUTO 26003KT 10SM OVC016 17/16 A3005 RMK AO2 SLP176 T01720156

More Conditions Fewer Conditions

10-Day Weather Forecast

Almanac

Astronomy

Dec. 28, 2014 Rise Set
Actual Time
Civil Twilight
Nautical Twilight
Astronomical Twilight
Moon
Length of Visible Light
Length of Day
Tomorrow will be .
, % of the Moon is Illuminated

Today's Extremes

State Highs State Lows

Community

WunderPhotos

Upload Photos

1,781,489 photos uploaded!

WunderBlogs® & News

Nearby

Air Quality

  Air Quality AQ Index Pollutant
Not available.

Snow Depth

Station Depth Elevation

Earthquake Activity

City Distance Mag. Time & Date
Minimum magnitude displayed is 2.5.

Coastal Water Temperatures

Place Temperature

Nearby Weather Stations